Timeline UpdatesTrip UpdatesNews PostsPvt PostsTravel TipsAdmin PostsConv PostsFollowed PostsChat RequestsBlog PostsPNR Posts

Disclaimer
Search
 
 
Tue Sep 2, 2014 07:30:34 ISTHomeTrainsΣChainsAtlasPNRForumGalleryNewsFAQTripsMembersLoginFeedback
Latest...
Will depart from originating station at 15:30 hours w.e.f. 01.09.2014
Wed Aug 27, 2014 (04:18AM)
⇐ Return Journey: Train# 13352-Slip

18189/Tatanagar- Alappuzha Alleppey Express-Slip

Time-Table HAS CHANGED.
Yesterday (11:07PM)
Change Departure Station:
Change Arrival Station:
Post a Train Travel TipPost a Train Travel Tip **new
Post a Comment/Question/Picture/VideoPost a Comment/Question/Picture/Video
Pantry/Catering
✓ Pantry Car Avbl
✓ Catering Avbl
.pantry car available from rourkela to allappuzha because pantry car...
Read more...
is available in dhanbad portion
Loco/Rake Reversals
MAS/Chennai Central (12); VSKP/Visakhapatnam Junction (8); SRR/Shoranur Junction (7);
RSA - Rake Sharing
Rake/Coach Composition
LOCO-SLR*-GS*-S1*-S2*-S3*-S4*-S5*-S6*-S7*-S8*-PC*-A1*-B1*-B2-ST1-ST2-ST3-ST4-ST5-GS-SLR; *= Dhanbad portion attached at ROU.
Loco
Loco In-Charge:- TATA - ROU :- TATA WAM-4/ASN WAM-4 ROU - VSKP...
Read more...
:- VSKP/R/BNDM WDM-3A VSKP - MAS :- AJJ WAM-4/BZA WAM-4 - RPM WAP-4/1 MAS - ALLP :- RPM WAP-1/WAP-4, AJJ WAM-4/WAP-4
News    PNR    Forum    Time-Table    Availability    Fare Chart    Map    Arr/Dep History    Trips    Gallery    ΣChains    X/O    Timeline    
Travel Time: 11h 55m    11 halts    Distance: 470 km    Avg Speed: 39 km/hr
Type: Mail/Express
Zone: SER/South Eastern
Departs @ 08:25
Platform# ???
SMTWTFS
Bommidi/BQI 
Arrives @ 20:20
Platform# 3
SMTWTFS
Alappuzha/ALLP 

11 halts. 79 intermediate Stations between Bommidi and Alappuzha

Show ALL intermediate Stations  Show Old Time-Table

#CodeStation NameX/OArrivesAvgDepartsAvgHaltPFDay#KmSpeedElevZoneAddress
1TATATatanagar Junction (5)  -15:45 15:30-11-1892.962164mSER91-657-2423026, Jharkhand
2SINISini Junction (3)X  16:10 15:56-16:11 15:57-1m--1-1866.061182mSERNational Highway 33, Jharkhand
3RKSNRajkharsawan Junction (3)  16:25 16:12-16:26 16:13-1m--1-1850.755189mSERSaraikela Kharswan District, Jharkhand
4CKPChakradharpur (3)  16:50 16:35-16:55 16:40-5m11-1830.792235mSERChakradharpur (West Singhbhum), Jharkhand
5GOLGoilkera (2)  17:16 17:02-17:17 17:03-1m--1-1796.957333mSERGoilkera, Jharkhand
6MOUManoharpurX  17:46 17:32-17:47 17:33-1m--1-1769.469228mSERManoharpur, Jharkhand
7BNDMBondamunda (2)  18:14 18:02-18:15 18:03-1m--1-1736.118213mSERRourkela, Odisha
8ROURourkela Junction (5)X18:35 18:25-19:00-25 35m11-1729.664198mSERRourkela, Odisha
9GPRaj Gangpur (3)O  19:28-19:29-1m--1-1699.842237mSERRaj Ganpur, Odisha
10BMBBamra (3)  19:59 20:19-20:00 20:20-1m--1-1665.2110259mSERBamra PH : 06642-229268, Odisha
11JSGJharsuguda Junction (5)  20:40-20:50-10m11-1628.766236mSERJharsuguda, Odisha
12RGLRengali  21:15 21:14-21:17 21:15-2 1m--1-1602.365208mECoRState Highway 10, Odisha
13SBPDSambalpur Road  21:35 21:34-21:37 21:35-2 1m--1-1581.69161mECoRSambalpur, Odisha
14SBPSambalpur Junction (3)X  21:45-21:55-10m11-1580.161159mECoRSambalpur, Odisha
15ATSAttabira  22:18 22:19-22:20-2 1m--1-1555.677164mECoRBargarh, Odisha
16BRGABargarh Road (3)X  22:34-22:39-5m--1-1537.568185mECoRBargarh, Odisha
17BRPLBarpaliX  22:57 22:56-22:59 22:57-2 1m--1-1518.365178mECoRBarpali, Odisha
18BLGRBalangir (3)  23:50-23:55-5m--1-1461.246210mECoRBolangir, Odisha
19BUDMBadmal  00:50 00:51-00:52-2 1m--2-1417.923209mECoRDumerbahal Rd, Odisha
20TIGTitlagarh Junction (3)X  01:45-01:55-10m--2-1397.952212mECoRTitlagarh, Odisha
21KSNGKesinga (1)X  02:10 02:11-02:12-2 1m12-1383.961183mECoRKesinga, Odisha
22RPRDRupra Road  02:27 02:28-02:29-2 1m--2-1367.740233mECoRKalahandi, Odisha
23NRLRNorla Road  02:38 02:39-02:40-2 1m--2-1361.158247mECoRKalahandi, Odisha
24AMBAmbodala  03:05 03:06-03:07-2 1m--2-1336.138374mECoRState Highway 6, Odisha
25MNGDMunigudaX  03:45 03:46-03:47-2 1m--2-1311.140335mECoRMuniguda, Odisha
26THVTherubali  04:40 04:41-04:42-2 1m--2-1275.130270mECoRRayagada, Odisha
27SPRDSingapuram Road (2)X  05:00 05:01-05:02-2 1m--2-1265.715248mECoRJaykaypur, Odisha
28RGDARayagada (3)  05:40-05:55-15m--2-1256.572229mECoRRayagada ph.no 06856-222407, Odisha
29PVPTParvatipuram TownX  06:32 06:33-06:34-2 1m--2-1211.220121mECoRParvatipuram, Andhra Pradesh
30PVPParvatipuram (3)  06:38 06:39-06:40-2 1m--2-1209.672122mECoRParvatipuram, Andhra Pradesh
31VBLBobbili Junction (2)X  07:00-07:03-3m22-1185.749137mECoRBobbili, Andhra Pradesh
32VZMVizianagaram Junction (5)  08:15 08:10-08:20 08:15-5m--2-1131.48463mECoRVizianagaram, Andhra Pradesh
33KTVKottavalasa Junction (5)X  08:48 08:40-08:50 08:42-2m--2-1096.45758mECoRVizianagaram District, Andhra Pradesh
34SCMSimhachalam (2)XO  09:17 09:01-09:19 09:02-2 1m--2-1078.4927mECoRVisakhapatnam, Andhra Pradesh
35VSKPVisakhapatnam Junction (8)X10:05 09:55-10:25 10:10-20 15m42-1070.23311mECoRVishakhapatnam 530001, Andhra Pradesh
36AKPAnakapalle (3)  11:10 11:09-11:11 11:10-1m--2-1037.96830mSCRAnakapalle ph.no . 08924-221698, Andhra Pradesh
37YLMElamanchili (2)X  11:31-11:32-1m--2-1014.27123mSCRVisakhapatnam District, Andhra Pradesh
38NRPNarsipatnam Road (2)  11:47-11:48-1m--2-996.48418mSCRVisakhapatnam District, Andhra Pradesh
39TUNITuni (2)X  12:04-12:05-1m12-974.17124mSCRTuni ph.no. 08854-252172, Andhra Pradesh
40ANVAnnavaram (3)  12:19-12:20-1m12-957.57627mSCREast Godavari District, Andhra Pradesh
41GLPGollaproluX  12:35-12:36-1m--2-938.44919mSCRGollaprollu, Andhra Pradesh
42PAPPithapuram (2)  12:43-12:44-1m--2-932.77222mSCREast Godavari District, Andhra Pradesh
43SLOSamalkot Junction (3)  12:54-12:55-1m32-920.68418mSCRSamalkot, Andhra Pradesh
44APTAnaparti (3)  13:14-13:15-1m--2-894.13821mSCREast Godavari District, Andhra Pradesh
45DWPDwarapudi (3)  13:21-13:22-1m--2-890.32420mSCREast Godavari District, Andhra Pradesh
46RJYRajahmundry (3)  14:11-14:16-5m12-870.43623mSCRRajahmundry ph.no. 0883-2420541, Andhra Pradesh
47KVRKovvur (3)  14:29-14:30-1m--2-862.66125mSCRWest Godavari, Andhra Pradesh
48NDDNidadavolu Junction (3)  14:44-14:45-1m--2-848.37120mSCRNidadavolu jtn ph.no. 08813-210325, Andhra Pradesh
49TDDTadepalligudem (3)X  15:02-15:03-1m--2-828.38718mSCRTadepalligudem, Andhra Pradesh
50EEEluru (3)X  15:36-15:37-1m32-780.53319mSCREluru Ph.no. 08812 226401., Andhra Pradesh
51BZAVijayawada Junction (10)X  17:25-17:45-20m--2-721.16924mSCRVijayawada 520001, Andhra Pradesh
52TELTenali Junction (5)  18:12-18:13-1m32-689.94316mSCRTel: 08644-227834, Andhra Pradesh
53NDONidubrolu (3)  18:33 18:44-18:34 18:45-1m--2-667.9659mSCRNidubrolu, Andhra Pradesh
54BPPBapatla (3)  18:53 19:04-18:54 19:05-1m--2-647.36510mSCRBapatla, Andhra Pradesh
55CLXChirala (4)  19:06 19:19-19:07 19:20-1m--2-632.2878mSCRChirala, Andhra Pradesh
56CJMChinnaganjam (3)X  19:23 19:34-19:24 19:35-1m--2-611.9519mSCRChinna Ganjam, Andhra Pradesh
57OGLOngole (3)X  20:12 20:09-20:13 20:10-1m32-582.96812mSCROngole, Andhra Pradesh
58SKMSingarayakonda (2)X  20:35-20:36-1m22-554.69126mSCRSingarayakonda, Andhra Pradesh
59KVZKavali (4)X  21:01-21:02-1m22-516.97621mSCRKavali, Andhra Pradesh
60BTTRBitragunta (2)X  21:15-21:16-1m22-500.44515mSCRBitragunta, Andhra Pradesh
61NLRNellore (4)X  22:02-22:03-1m32-466.11721mSCRNellore, Andhra Pradesh
62GDRGudur Junction (3)  00:18-00:20-2m23-427.66919mSCRGudur, Andhra Pradesh
63NYPNayadupeta (3)  00:44-00:45-1m23-399.96833mSRNayudupeta, Andhra Pradesh
64SPESullurupeta (3)  01:09-01:10-1m23-372.7479mSR524121., Andhra Pradesh
65MASChennai Central (12)03:00 02:55-03:25-25 30m83-290.3599mSRChennai 600003, Tamil Nadu
66AJJArakkonam Junction (8)X  04:35-04:40-5m13-221.65691mSRArakkonam, Tamil Nadu
67KPDKatpadi Junction (5)X  05:50 05:45-05:55 05:50-5m13-160.877213mSRVellore 632007, Tamil Nadu
68GYMGudiyattam (3)  06:14 06:09-06:15 06:10-1m33-136.391269mSRVellore, Tamil Nadu
69VNVaniyambadiXO  06:44 06:39-06:45 06:40-1m--3-92.524357mSRVaniyambadi, Tamil Nadu
70JTJJolarpettai Junction (5)  07:18-07:20-2m--3-77.039405mSRJolarpettai, Tamil Nadu
71TPTTirupattur (2)  07:30 07:31-07:32-2 1m--3-69.873392mSRTirupattur ph.no. 04179-220062, Tamil Nadu
72SLYSamalpatti  07:50 07:51-07:52-2 1m--3-46.687388mSRSamalpatti ph.no. 04341-245601, Tamil Nadu
73BQI»Bommidi»X  08:23 08:24-08:25-2 1m--30.0520mSRBommidi ph.no. 04346-244441, Tamil Nadu
74SASalem Junction (6)X  09:00 09:15-09:05 09:20-5m--343.361283mSRSalem, Tamil Nadu
75EDErode Junction (4)X  10:15 10:20-10:25 10:30-10m23104.670175mSRErode ph.no: 0424-2256111, Tamil Nadu
76TUPTiruppur (2)  11:03 11:13-11:05 11:15-2m13154.843305mSRTiruppur. Ph:0421-2200450, Tamil Nadu
77CBECoimbatore Main Junction (6)  12:08 12:25-12:10 12:30-2 5m--3205.339416mSRCoimbatore 641001, Tamil Nadu
78PGTPalakkad Junction (4)X  13:30 13:55-13:35 14:00-5m--3260.63684mSRPalghat Tel: 0491 2555231, Kerala
79SRRShoranur Junction (7)14:40 15:15-15:25-45 10m53305.24226mSRShoranur ph.no 0466-2222913, Kerala
80TCRThrissur (4)  16:27 16:12-16:30 16:15-3m13338.2606mSRThrissur Tel: 0487 2423150, Kerala
81AWYAluva (3)X  17:18 17:10-17:20 17:12-2m13392.81812mSRPh: 0484-2624141, Kerala
82ERSErnakulam Junction (South) (6)  18:26 18:15-18:30 18:25-4 10m13412.2413mSRErnakulam 682016, Kerala
83TUVRTuravur (2)  19:04 18:59-19:05 19:00-1m--3435.6665mSRThuravoor, Kerala
84SRTLCherthala (3)O  19:19 19:09-19:20 19:10-1m23445.6217mSRPh: 0478- 2812500, Kerala
85ALLP•Alappuzha (3)•  20:20--33469.7-8mSRPh:0477-2253965, Kerala
Scroll to Top
Scroll to Bottom